sensor_id;sensor_type;location;lat;lon;timestamp;P1;durP1;ratioP1;P2;durP2;ratioP2
17153;SDS011;8692;52.164;7.558;2023-08-24T00:00:53;3.57;;;2.30;;
17153;SDS011;8692;52.164;7.558;2023-08-24T00:03:22;2.57;;;2.30;;
17153;SDS011;8692;52.164;7.558;2023-08-24T00:05:50;3.13;;;2.03;;
17153;SDS011;8692;52.164;7.558;2023-08-24T00:08:18;2.73;;;2.50;;
17153;SDS011;8692;52.164;7.558;2023-08-24T00:10:46;2.03;;;1.90;;
17153;SDS011;8692;52.164;7.558;2023-08-24T00:13:14;3.23;;;2.57;;
17153;SDS011;8692;52.164;7.558;2023-08-24T00:15:42;3.17;;;2.20;;
17153;SDS011;8692;52.164;7.558;2023-08-24T00:18:13;2.80;;;2.23;;
17153;SDS011;8692;52.164;7.558;2023-08-24T00:20:41;5.03;;;2.33;;
17153;SDS011;8692;52.164;7.558;2023-08-24T00:23:09;3.67;;;2.10;;
17153;SDS011;8692;52.164;7.558;2023-08-24T00:25:37;2.80;;;2.50;;
17153;SDS011;8692;52.164;7.558;2023-08-24T00:28:07;3.00;;;2.20;;
17153;SDS011;8692;52.164;7.558;2023-08-24T00:30:35;3.00;;;2.67;;
17153;SDS011;8692;52.164;7.558;2023-08-24T00:33:04;2.73;;;2.10;;
17153;SDS011;8692;52.164;7.558;2023-08-24T00:35:33;2.60;;;2.40;;
17153;SDS011;8692;52.164;7.558;2023-08-24T00:38:01;3.57;;;2.90;;
17153;SDS011;8692;52.164;7.558;2023-08-24T00:40:30;4.97;;;2.37;;
17153;SDS011;8692;52.164;7.558;2023-08-24T00:42:59;2.73;;;2.53;;
17153;SDS011;8692;52.164;7.558;2023-08-24T00:45:27;2.73;;;2.53;;
17153;SDS011;8692;52.164;7.558;2023-08-24T00:47:57;2.83;;;2.63;;
17153;SDS011;8692;52.164;7.558;2023-08-24T00:50:25;4.13;;;2.80;;
17153;SDS011;8692;52.164;7.558;2023-08-24T00:52:55;4.37;;;3.00;;
17153;SDS011;8692;52.164;7.558;2023-08-24T00:55:23;2.40;;;2.20;;
17153;SDS011;8692;52.164;7.558;2023-08-24T00:57:52;2.27;;;1.97;;
17153;SDS011;8692;52.164;7.558;2023-08-24T01:00:20;3.20;;;2.20;;
17153;SDS011;8692;52.164;7.558;2023-08-24T01:02:50;2.20;;;2.00;;
17153;SDS011;8692;52.164;7.558;2023-08-24T01:05:18;2.63;;;2.33;;
17153;SDS011;8692;52.164;7.558;2023-08-24T01:07:47;2.67;;;2.10;;
17153;SDS011;8692;52.164;7.558;2023-08-24T01:10:18;2.20;;;2.10;;
17153;SDS011;8692;52.164;7.558;2023-08-24T01:12:50;2.60;;;2.40;;
17153;SDS011;8692;52.164;7.558;2023-08-24T01:15:29;2.40;;;2.13;;
17153;SDS011;8692;52.164;7.558;2023-08-24T01:18:04;2.73;;;2.17;;
17153;SDS011;8692;52.164;7.558;2023-08-24T01:20:36;3.10;;;2.80;;
17153;SDS011;8692;52.164;7.558;2023-08-24T01:23:07;3.60;;;2.70;;
17153;SDS011;8692;52.164;7.558;2023-08-24T01:25:48;2.87;;;2.53;;
17153;SDS011;8692;52.164;7.558;2023-08-24T01:28:21;2.57;;;2.37;;
17153;SDS011;8692;52.164;7.558;2023-08-24T01:30:50;2.73;;;2.40;;
17153;SDS011;8692;52.164;7.558;2023-08-24T01:33:18;1.93;;;1.73;;
17153;SDS011;8692;52.164;7.558;2023-08-24T01:35:46;2.23;;;2.03;;
17153;SDS011;8692;52.164;7.558;2023-08-24T01:38:14;2.53;;;2.33;;
17153;SDS011;8692;52.164;7.558;2023-08-24T01:40:45;3.13;;;2.50;;
17153;SDS011;8692;52.164;7.558;2023-08-24T01:43:19;2.93;;;2.43;;
17153;SDS011;8692;52.164;7.558;2023-08-24T01:46:08;4.10;;;2.77;;
17153;SDS011;8692;52.164;7.558;2023-08-24T01:48:41;3.23;;;2.53;;
17153;SDS011;8692;52.164;7.558;2023-08-24T01:51:10;2.43;;;2.20;;
17153;SDS011;8692;52.164;7.558;2023-08-24T01:53:39;2.57;;;2.37;;
17153;SDS011;8692;52.164;7.558;2023-08-24T01:56:08;2.90;;;2.60;;
17153;SDS011;8692;52.164;7.558;2023-08-24T01:58:38;2.67;;;2.47;;
17153;SDS011;8692;52.164;7.558;2023-08-24T02:01:07;4.37;;;3.00;;
17153;SDS011;8692;52.164;7.558;2023-08-24T02:03:36;2.47;;;2.27;;
17153;SDS011;8692;52.164;7.558;2023-08-24T02:06:06;3.63;;;2.80;;
17153;SDS011;8692;52.164;7.558;2023-08-24T02:08:34;3.23;;;2.90;;
17153;SDS011;8692;52.164;7.558;2023-08-24T02:11:02;3.37;;;3.00;;
17153;SDS011;8692;52.164;7.558;2023-08-24T02:13:31;2.60;;;2.40;;
17153;SDS011;8692;52.164;7.558;2023-08-24T02:16:04;2.73;;;2.27;;
17153;SDS011;8692;52.164;7.558;2023-08-24T02:18:34;2.70;;;2.50;;
17153;SDS011;8692;52.164;7.558;2023-08-24T02:21:06;2.83;;;2.53;;
17153;SDS011;8692;52.164;7.558;2023-08-24T02:23:35;2.70;;;2.47;;
17153;SDS011;8692;52.164;7.558;2023-08-24T02:26:04;3.47;;;2.43;;
17153;SDS011;8692;52.164;7.558;2023-08-24T02:28:32;2.37;;;2.20;;
17153;SDS011;8692;52.164;7.558;2023-08-24T02:31:01;2.90;;;2.70;;
17153;SDS011;8692;52.164;7.558;2023-08-24T02:33:30;3.03;;;2.83;;
17153;SDS011;8692;52.164;7.558;2023-08-24T02:35:59;2.63;;;2.37;;
17153;SDS011;8692;52.164;7.558;2023-08-24T02:38:28;2.53;;;2.33;;
17153;SDS011;8692;52.164;7.558;2023-08-24T02:41:02;2.73;;;2.53;;
17153;SDS011;8692;52.164;7.558;2023-08-24T02:43:30;2.63;;;2.43;;
17153;SDS011;8692;52.164;7.558;2023-08-24T02:45:59;2.90;;;2.60;;
17153;SDS011;8692;52.164;7.558;2023-08-24T02:48:30;2.63;;;2.43;;
17153;SDS011;8692;52.164;7.558;2023-08-24T02:51:01;2.83;;;2.53;;
17153;SDS011;8692;52.164;7.558;2023-08-24T02:53:30;2.73;;;2.53;;
17153;SDS011;8692;52.164;7.558;2023-08-24T02:55:59;2.90;;;2.60;;
17153;SDS011;8692;52.164;7.558;2023-08-24T02:58:27;2.90;;;2.63;;
17153;SDS011;8692;52.164;7.558;2023-08-24T03:00:56;2.60;;;2.40;;
17153;SDS011;8692;52.164;7.558;2023-08-24T03:03:24;3.23;;;2.57;;
17153;SDS011;8692;52.164;7.558;2023-08-24T03:05:54;3.77;;;3.10;;
17153;SDS011;8692;52.164;7.558;2023-08-24T03:08:23;4.07;;;2.50;;
17153;SDS011;8692;52.164;7.558;2023-08-24T03:10:51;2.50;;;2.30;;
17153;SDS011;8692;52.164;7.558;2023-08-24T03:13:19;3.10;;;2.80;;
17153;SDS011;8692;52.164;7.558;2023-08-24T03:15:48;2.70;;;2.47;;
17153;SDS011;8692;52.164;7.558;2023-08-24T03:18:16;3.63;;;2.50;;
17153;SDS011;8692;52.164;7.558;2023-08-24T03:20:44;2.87;;;2.67;;
17153;SDS011;8692;52.164;7.558;2023-08-24T03:23:15;3.00;;;2.50;;
17153;SDS011;8692;52.164;7.558;2023-08-24T03:25:43;2.30;;;2.10;;
17153;SDS011;8692;52.164;7.558;2023-08-24T03:28:12;3.07;;;2.70;;
17153;SDS011;8692;52.164;7.558;2023-08-24T03:30:45;2.93;;;2.60;;
17153;SDS011;8692;52.164;7.558;2023-08-24T03:33:15;2.97;;;2.77;;
17153;SDS011;8692;52.164;7.558;2023-08-24T03:35:43;3.00;;;2.80;;
17153;SDS011;8692;52.164;7.558;2023-08-24T03:38:11;2.73;;;2.53;;
17153;SDS011;8692;52.164;7.558;2023-08-24T03:40:41;3.57;;;2.70;;
17153;SDS011;8692;52.164;7.558;2023-08-24T03:43:09;2.70;;;2.50;;
17153;SDS011;8692;52.164;7.558;2023-08-24T03:45:38;3.67;;;2.50;;
17153;SDS011;8692;52.164;7.558;2023-08-24T03:48:06;3.03;;;2.73;;
17153;SDS011;8692;52.164;7.558;2023-08-24T03:50:34;3.10;;;2.80;;
17153;SDS011;8692;52.164;7.558;2023-08-24T03:53:03;3.40;;;3.10;;
17153;SDS011;8692;52.164;7.558;2023-08-24T03:55:31;3.10;;;2.90;;
17153;SDS011;8692;52.164;7.558;2023-08-24T03:58:02;3.13;;;2.83;;
17153;SDS011;8692;52.164;7.558;2023-08-24T04:00:30;2.73;;;2.53;;
17153;SDS011;8692;52.164;7.558;2023-08-24T04:03:00;3.40;;;3.10;;
17153;SDS011;8692;52.164;7.558;2023-08-24T04:05:28;3.93;;;2.73;;
17153;SDS011;8692;52.164;7.558;2023-08-24T04:07:57;3.70;;;3.40;;
17153;SDS011;8692;52.164;7.558;2023-08-24T04:10:27;4.23;;;3.10;;
17153;SDS011;8692;52.164;7.558;2023-08-24T04:12:57;3.00;;;2.70;;
17153;SDS011;8692;52.164;7.558;2023-08-24T04:15:26;3.30;;;3.00;;
17153;SDS011;8692;52.164;7.558;2023-08-24T04:17:55;4.03;;;3.70;;
17153;SDS011;8692;52.164;7.558;2023-08-24T04:20:23;3.57;;;3.27;;
17153;SDS011;8692;52.164;7.558;2023-08-24T04:22:51;4.50;;;3.77;;
17153;SDS011;8692;52.164;7.558;2023-08-24T04:25:19;3.70;;;3.37;;
17153;SDS011;8692;52.164;7.558;2023-08-24T04:27:47;3.70;;;3.40;;
17153;SDS011;8692;52.164;7.558;2023-08-24T04:30:16;4.50;;;4.03;;
17153;SDS011;8692;52.164;7.558;2023-08-24T04:32:45;4.90;;;4.40;;
17153;SDS011;8692;52.164;7.558;2023-08-24T04:35:13;4.77;;;4.33;;
17153;SDS011;8692;52.164;7.558;2023-08-24T04:37:42;6.87;;;4.67;;
17153;SDS011;8692;52.164;7.558;2023-08-24T04:40:10;6.03;;;4.97;;
17153;SDS011;8692;52.164;7.558;2023-08-24T04:42:38;5.73;;;5.03;;
17153;SDS011;8692;52.164;7.558;2023-08-24T04:45:06;5.83;;;4.50;;
17153;SDS011;8692;52.164;7.558;2023-08-24T04:47:36;5.40;;;5.00;;
17153;SDS011;8692;52.164;7.558;2023-08-24T04:50:06;6.97;;;5.40;;
17153;SDS011;8692;52.164;7.558;2023-08-24T04:52:34;6.07;;;5.13;;
17153;SDS011;8692;52.164;7.558;2023-08-24T04:55:03;5.77;;;5.17;;
17153;SDS011;8692;52.164;7.558;2023-08-24T04:57:31;5.97;;;5.47;;
17153;SDS011;8692;52.164;7.558;2023-08-24T04:59:59;10.57;;;8.77;;
17153;SDS011;8692;52.164;7.558;2023-08-24T05:02:27;7.77;;;6.97;;
17153;SDS011;8692;52.164;7.558;2023-08-24T05:04:55;9.20;;;6.43;;
17153;SDS011;8692;52.164;7.558;2023-08-24T05:07:24;6.37;;;5.70;;
17153;SDS011;8692;52.164;7.558;2023-08-24T05:09:53;6.53;;;5.90;;
17153;SDS011;8692;52.164;7.558;2023-08-24T05:12:21;7.37;;;6.37;;
17153;SDS011;8692;52.164;7.558;2023-08-24T05:14:49;6.70;;;6.10;;
17153;SDS011;8692;52.164;7.558;2023-08-24T05:17:17;9.60;;;7.37;;
17153;SDS011;8692;52.164;7.558;2023-08-24T05:19:46;7.93;;;7.23;;
17153;SDS011;8692;52.164;7.558;2023-08-24T05:22:18;8.00;;;5.70;;
17153;SDS011;8692;52.164;7.558;2023-08-24T05:24:47;6.57;;;5.10;;
17153;SDS011;8692;52.164;7.558;2023-08-24T05:27:15;6.93;;;5.97;;
17153;SDS011;8692;52.164;7.558;2023-08-24T05:29:43;6.00;;;5.43;;
17153;SDS011;8692;52.164;7.558;2023-08-24T05:32:11;5.47;;;4.80;;
17153;SDS011;8692;52.164;7.558;2023-08-24T05:34:39;5.67;;;5.17;;
17153;SDS011;8692;52.164;7.558;2023-08-24T05:37:07;5.33;;;4.83;;
17153;SDS011;8692;52.164;7.558;2023-08-24T05:39:35;5.23;;;4.80;;
17153;SDS011;8692;52.164;7.558;2023-08-24T05:42:04;5.40;;;4.40;;
17153;SDS011;8692;52.164;7.558;2023-08-24T05:44:33;7.33;;;6.70;;
17153;SDS011;8692;52.164;7.558;2023-08-24T05:47:01;6.07;;;5.47;;
17153;SDS011;8692;52.164;7.558;2023-08-24T05:49:29;5.97;;;5.37;;
17153;SDS011;8692;52.164;7.558;2023-08-24T05:51:57;7.17;;;5.83;;
17153;SDS011;8692;52.164;7.558;2023-08-24T05:54:25;7.47;;;5.70;;
17153;SDS011;8692;52.164;7.558;2023-08-24T05:56:53;7.60;;;6.60;;
17153;SDS011;8692;52.164;7.558;2023-08-24T05:59:22;7.83;;;6.43;;
17153;SDS011;8692;52.164;7.558;2023-08-24T06:01:50;7.10;;;6.37;;
17153;SDS011;8692;52.164;7.558;2023-08-24T06:04:18;11.13;;;6.93;;
17153;SDS011;8692;52.164;7.558;2023-08-24T06:06:46;7.73;;;6.87;;
17153;SDS011;8692;52.164;7.558;2023-08-24T06:09:14;7.93;;;6.60;;
17153;SDS011;8692;52.164;7.558;2023-08-24T06:11:42;7.37;;;6.67;;
17153;SDS011;8692;52.164;7.558;2023-08-24T06:14:10;6.80;;;6.10;;
17153;SDS011;8692;52.164;7.558;2023-08-24T06:16:40;7.50;;;6.77;;
17153;SDS011;8692;52.164;7.558;2023-08-24T06:19:08;8.77;;;6.43;;
17153;SDS011;8692;52.164;7.558;2023-08-24T06:21:36;8.13;;;7.13;;
17153;SDS011;8692;52.164;7.558;2023-08-24T06:24:04;9.03;;;8.13;;
17153;SDS011;8692;52.164;7.558;2023-08-24T06:26:32;8.33;;;7.50;;
17153;SDS011;8692;52.164;7.558;2023-08-24T06:29:00;8.17;;;7.03;;
17153;SDS011;8692;52.164;7.558;2023-08-24T06:31:28;7.30;;;6.60;;
17153;SDS011;8692;52.164;7.558;2023-08-24T06:33:59;8.97;;;8.07;;
17153;SDS011;8692;52.164;7.558;2023-08-24T06:36:27;8.67;;;7.77;;
17153;SDS011;8692;52.164;7.558;2023-08-24T06:38:56;8.10;;;7.43;;
17153;SDS011;8692;52.164;7.558;2023-08-24T06:41:25;12.27;;;11.07;;
17153;SDS011;8692;52.164;7.558;2023-08-24T06:43:53;12.00;;;10.80;;
17153;SDS011;8692;52.164;7.558;2023-08-24T06:46:21;10.40;;;9.50;;
17153;SDS011;8692;52.164;7.558;2023-08-24T06:48:50;13.97;;;12.50;;
17153;SDS011;8692;52.164;7.558;2023-08-24T06:51:19;15.03;;;13.77;;
17153;SDS011;8692;52.164;7.558;2023-08-24T06:53:47;17.97;;;14.17;;
17153;SDS011;8692;52.164;7.558;2023-08-24T06:56:15;16.50;;;15.00;;
17153;SDS011;8692;52.164;7.558;2023-08-24T06:58:43;14.07;;;12.83;;
17153;SDS011;8692;52.164;7.558;2023-08-24T07:01:11;14.60;;;13.43;;
17153;SDS011;8692;52.164;7.558;2023-08-24T07:03:39;15.00;;;13.80;;
17153;SDS011;8692;52.164;7.558;2023-08-24T07:06:07;14.70;;;13.40;;
17153;SDS011;8692;52.164;7.558;2023-08-24T07:08:39;15.77;;;14.20;;
17153;SDS011;8692;52.164;7.558;2023-08-24T07:11:07;16.17;;;14.80;;
17153;SDS011;8692;52.164;7.558;2023-08-24T07:13:35;15.13;;;13.80;;
17153;SDS011;8692;52.164;7.558;2023-08-24T07:16:03;15.93;;;14.43;;
17153;SDS011;8692;52.164;7.558;2023-08-24T07:18:31;16.90;;;15.40;;
17153;SDS011;8692;52.164;7.558;2023-08-24T07:20:59;16.70;;;15.07;;
17153;SDS011;8692;52.164;7.558;2023-08-24T07:23:27;17.13;;;15.53;;
17153;SDS011;8692;52.164;7.558;2023-08-24T07:25:57;18.13;;;16.27;;
17153;SDS011;8692;52.164;7.558;2023-08-24T07:28:25;17.90;;;16.20;;
17153;SDS011;8692;52.164;7.558;2023-08-24T07:30:53;17.23;;;15.50;;
17153;SDS011;8692;52.164;7.558;2023-08-24T07:33:22;15.80;;;14.50;;
17153;SDS011;8692;52.164;7.558;2023-08-24T07:35:51;17.27;;;15.77;;
17153;SDS011;8692;52.164;7.558;2023-08-24T07:38:19;16.10;;;14.57;;
17153;SDS011;8692;52.164;7.558;2023-08-24T07:40:47;16.63;;;15.10;;
17153;SDS011;8692;52.164;7.558;2023-08-24T07:43:16;15.40;;;13.93;;
17153;SDS011;8692;52.164;7.558;2023-08-24T07:45:44;16.43;;;14.87;;
17153;SDS011;8692;52.164;7.558;2023-08-24T07:48:12;15.57;;;14.07;;
17153;SDS011;8692;52.164;7.558;2023-08-24T07:50:40;16.43;;;14.97;;
17153;SDS011;8692;52.164;7.558;2023-08-24T07:53:08;16.20;;;14.80;;
17153;SDS011;8692;52.164;7.558;2023-08-24T07:55:36;17.53;;;13.50;;
17153;SDS011;8692;52.164;7.558;2023-08-24T07:58:04;15.33;;;13.90;;
17153;SDS011;8692;52.164;7.558;2023-08-24T08:00:34;13.93;;;12.53;;
17153;SDS011;8692;52.164;7.558;2023-08-24T08:03:02;15.43;;;13.80;;
17153;SDS011;8692;52.164;7.558;2023-08-24T08:05:31;14.37;;;13.03;;
17153;SDS011;8692;52.164;7.558;2023-08-24T08:07:59;15.67;;;14.10;;
17153;SDS011;8692;52.164;7.558;2023-08-24T08:10:27;14.40;;;13.10;;
17153;SDS011;8692;52.164;7.558;2023-08-24T08:12:55;14.20;;;11.37;;
17153;SDS011;8692;52.164;7.558;2023-08-24T08:15:23;13.53;;;11.83;;
17153;SDS011;8692;52.164;7.558;2023-08-24T08:17:53;12.17;;;10.43;;
17153;SDS011;8692;52.164;7.558;2023-08-24T08:20:21;12.00;;;10.50;;
17153;SDS011;8692;52.164;7.558;2023-08-24T08:22:49;11.70;;;10.57;;
17153;SDS011;8692;52.164;7.558;2023-08-24T08:25:17;12.23;;;10.23;;
17153;SDS011;8692;52.164;7.558;2023-08-24T08:27:48;10.77;;;9.27;;
17153;SDS011;8692;52.164;7.558;2023-08-24T08:30:17;11.53;;;9.40;;
17153;SDS011;8692;52.164;7.558;2023-08-24T08:32:46;11.03;;;9.70;;
17153;SDS011;8692;52.164;7.558;2023-08-24T08:35:16;13.73;;;10.13;;
17153;SDS011;8692;52.164;7.558;2023-08-24T08:37:44;10.87;;;9.37;;
17153;SDS011;8692;52.164;7.558;2023-08-24T08:40:12;10.67;;;9.57;;
17153;SDS011;8692;52.164;7.558;2023-08-24T08:42:40;14.13;;;8.60;;
17153;SDS011;8692;52.164;7.558;2023-08-24T08:45:09;10.13;;;8.10;;
17153;SDS011;8692;52.164;7.558;2023-08-24T08:47:37;10.60;;;9.00;;
17153;SDS011;8692;52.164;7.558;2023-08-24T08:50:08;10.70;;;9.50;;
17153;SDS011;8692;52.164;7.558;2023-08-24T08:52:38;9.77;;;8.87;;
17153;SDS011;8692;52.164;7.558;2023-08-24T08:55:06;10.63;;;7.85;;
17153;SDS011;8692;52.164;7.558;2023-08-24T08:57:36;9.35;;;7.97;;
17153;SDS011;8692;52.164;7.558;2023-08-24T09:00:06;12.13;;;8.60;;
17153;SDS011;8692;52.164;7.558;2023-08-24T09:02:36;12.97;;;8.40;;
17153;SDS011;8692;52.164;7.558;2023-08-24T09:05:05;9.73;;;7.65;;
17153;SDS011;8692;52.164;7.558;2023-08-24T09:07:34;7.65;;;6.95;;
17153;SDS011;8692;52.164;7.558;2023-08-24T09:10:04;9.85;;;7.65;;
17153;SDS011;8692;52.164;7.558;2023-08-24T09:12:33;11.60;;;7.50;;
17153;SDS011;8692;52.164;7.558;2023-08-24T09:15:03;10.02;;;7.03;;
17153;SDS011;8692;52.164;7.558;2023-08-24T09:17:32;10.35;;;8.02;;
17153;SDS011;8692;52.164;7.558;2023-08-24T09:20:01;10.82;;;7.55;;
17153;SDS011;8692;52.164;7.558;2023-08-24T09:22:34;10.35;;;6.70;;
17153;SDS011;8692;52.164;7.558;2023-08-24T09:25:05;8.57;;;6.45;;
17153;SDS011;8692;52.164;7.558;2023-08-24T09:27:34;7.53;;;6.68;;
17153;SDS011;8692;52.164;7.558;2023-08-24T09:30:02;10.80;;;6.82;;
17153;SDS011;8692;52.164;7.558;2023-08-24T09:32:33;8.15;;;6.72;;
17153;SDS011;8692;52.164;7.558;2023-08-24T09:35:04;8.02;;;7.20;;
17153;SDS011;8692;52.164;7.558;2023-08-24T09:37:36;8.93;;;6.75;;
17153;SDS011;8692;52.164;7.558;2023-08-24T09:40:07;6.78;;;5.07;;
17153;SDS011;8692;52.164;7.558;2023-08-24T09:42:38;7.72;;;6.07;;
17153;SDS011;8692;52.164;7.558;2023-08-24T09:45:10;10.95;;;5.60;;
17153;SDS011;8692;52.164;7.558;2023-08-24T09:47:44;5.55;;;5.05;;
17153;SDS011;8692;52.164;7.558;2023-08-24T09:50:12;5.07;;;4.65;;
17153;SDS011;8692;52.164;7.558;2023-08-24T09:52:40;6.70;;;5.05;;
17153;SDS011;8692;52.164;7.558;2023-08-24T09:55:11;5.47;;;4.75;;
17153;SDS011;8692;52.164;7.558;2023-08-24T09:57:44;9.93;;;4.88;;
17153;SDS011;8692;52.164;7.558;2023-08-24T10:00:13;6.72;;;4.53;;
17153;SDS011;8692;52.164;7.558;2023-08-24T10:02:46;7.50;;;5.43;;
17153;SDS011;8692;52.164;7.558;2023-08-24T10:05:19;7.15;;;4.85;;
17153;SDS011;8692;52.164;7.558;2023-08-24T10:08:07;6.75;;;4.45;;
17153;SDS011;8692;52.164;7.558;2023-08-24T10:10:38;7.30;;;3.42;;
17153;SDS011;8692;52.164;7.558;2023-08-24T10:13:10;4.43;;;3.47;;
17153;SDS011;8692;52.164;7.558;2023-08-24T10:15:45;6.18;;;3.63;;
17153;SDS011;8692;52.164;7.558;2023-08-24T10:18:15;5.85;;;4.43;;
17153;SDS011;8692;52.164;7.558;2023-08-24T10:20:43;6.47;;;4.57;;
17153;SDS011;8692;52.164;7.558;2023-08-24T10:23:12;11.82;;;4.78;;
17153;SDS011;8692;52.164;7.558;2023-08-24T10:25:45;6.57;;;4.22;;
17153;SDS011;8692;52.164;7.558;2023-08-24T10:28:14;6.15;;;4.25;;
17153;SDS011;8692;52.164;7.558;2023-08-24T10:30:43;3.95;;;3.60;;
17153;SDS011;8692;52.164;7.558;2023-08-24T10:33:12;5.65;;;3.78;;
17153;SDS011;8692;52.164;7.558;2023-08-24T10:35:42;9.40;;;4.38;;
17153;SDS011;8692;52.164;7.558;2023-08-24T10:38:25;6.43;;;3.90;;
17153;SDS011;8692;52.164;7.558;2023-08-24T10:41:01;7.85;;;4.13;;
17153;SDS011;8692;52.164;7.558;2023-08-24T10:43:33;5.30;;;3.33;;
17153;SDS011;8692;52.164;7.558;2023-08-24T10:46:02;4.38;;;3.58;;
17153;SDS011;8692;52.164;7.558;2023-08-24T10:48:32;5.38;;;3.78;;
17153;SDS011;8692;52.164;7.558;2023-08-24T10:51:25;7.68;;;3.63;;
17153;SDS011;8692;52.164;7.558;2023-08-24T10:53:55;6.68;;;3.85;;
17153;SDS011;8692;52.164;7.558;2023-08-24T10:56:32;5.50;;;3.97;;
17153;SDS011;8692;52.164;7.558;2023-08-24T10:59:12;6.40;;;3.35;;
17153;SDS011;8692;52.164;7.558;2023-08-24T11:01:41;5.10;;;3.42;;
17153;SDS011;8692;52.164;7.558;2023-08-24T11:04:10;7.53;;;3.58;;
17153;SDS011;8692;52.164;7.558;2023-08-24T11:06:51;6.95;;;3.45;;
17153;SDS011;8692;52.164;7.558;2023-08-24T11:09:21;6.03;;;3.75;;
17153;SDS011;8692;52.164;7.558;2023-08-24T11:11:56;5.72;;;3.85;;
17153;SDS011;8692;52.164;7.558;2023-08-24T11:14:26;5.07;;;3.25;;
17153;SDS011;8692;52.164;7.558;2023-08-24T11:16:56;4.47;;;2.53;;
17153;SDS011;8692;52.164;7.558;2023-08-24T11:19:25;3.45;;;2.70;;
17153;SDS011;8692;52.164;7.558;2023-08-24T11:21:53;3.58;;;2.83;;
17153;SDS011;8692;52.164;7.558;2023-08-24T11:24:22;4.93;;;3.25;;
17153;SDS011;8692;52.164;7.558;2023-08-24T11:26:52;6.53;;;3.60;;
17153;SDS011;8692;52.164;7.558;2023-08-24T11:29:21;4.28;;;3.60;;
17153;SDS011;8692;52.164;7.558;2023-08-24T11:31:52;4.03;;;2.92;;
17153;SDS011;8692;52.164;7.558;2023-08-24T11:34:20;4.93;;;2.88;;
17153;SDS011;8692;52.164;7.558;2023-08-24T11:36:48;5.40;;;2.65;;
17153;SDS011;8692;52.164;7.558;2023-08-24T11:39:17;4.20;;;2.80;;
17153;SDS011;8692;52.164;7.558;2023-08-24T11:41:56;4.18;;;3.13;;
17153;SDS011;8692;52.164;7.558;2023-08-24T11:44:26;5.43;;;2.95;;
17153;SDS011;8692;52.164;7.558;2023-08-24T11:46:55;4.20;;;3.00;;
17153;SDS011;8692;52.164;7.558;2023-08-24T11:49:25;6.88;;;3.15;;
17153;SDS011;8692;52.164;7.558;2023-08-24T11:51:54;8.68;;;3.50;;
17153;SDS011;8692;52.164;7.558;2023-08-24T11:54:22;7.15;;;3.45;;
17153;SDS011;8692;52.164;7.558;2023-08-24T11:56:51;5.50;;;3.55;;
17153;SDS011;8692;52.164;7.558;2023-08-24T11:59:19;5.28;;;3.33;;
17153;SDS011;8692;52.164;7.558;2023-08-24T12:01:49;5.75;;;3.15;;
17153;SDS011;8692;52.164;7.558;2023-08-24T12:04:18;4.10;;;2.95;;
17153;SDS011;8692;52.164;7.558;2023-08-24T12:06:47;4.30;;;2.78;;
17153;SDS011;8692;52.164;7.558;2023-08-24T12:09:14;4.85;;;2.75;;
17153;SDS011;8692;52.164;7.558;2023-08-24T12:11:43;4.95;;;3.00;;
17153;SDS011;8692;52.164;7.558;2023-08-24T12:14:16;3.90;;;2.67;;
17153;SDS011;8692;52.164;7.558;2023-08-24T12:16:44;3.25;;;2.65;;
17153;SDS011;8692;52.164;7.558;2023-08-24T12:19:14;5.07;;;2.80;;
17153;SDS011;8692;52.164;7.558;2023-08-24T12:21:43;3.17;;;2.78;;
17153;SDS011;8692;52.164;7.558;2023-08-24T12:24:13;7.93;;;2.85;;
17153;SDS011;8692;52.164;7.558;2023-08-24T12:26:41;4.25;;;2.78;;
17153;SDS011;8692;52.164;7.558;2023-08-24T12:29:09;3.33;;;2.10;;
17153;SDS011;8692;52.164;7.558;2023-08-24T12:31:41;4.18;;;2.78;;
17153;SDS011;8692;52.164;7.558;2023-08-24T12:34:10;3.85;;;2.60;;
17153;SDS011;8692;52.164;7.558;2023-08-24T12:36:44;5.82;;;2.53;;
17153;SDS011;8692;52.164;7.558;2023-08-24T12:39:12;6.35;;;2.70;;
17153;SDS011;8692;52.164;7.558;2023-08-24T12:41:41;5.35;;;2.30;;
17153;SDS011;8692;52.164;7.558;2023-08-24T12:44:09;6.85;;;2.47;;
17153;SDS011;8692;52.164;7.558;2023-08-24T12:46:40;4.03;;;2.60;;
17153;SDS011;8692;52.164;7.558;2023-08-24T12:49:08;4.47;;;2.88;;
17153;SDS011;8692;52.164;7.558;2023-08-24T12:51:38;3.65;;;2.50;;
17153;SDS011;8692;52.164;7.558;2023-08-24T12:54:07;3.45;;;2.75;;
17153;SDS011;8692;52.164;7.558;2023-08-24T12:56:38;5.88;;;2.75;;
17153;SDS011;8692;52.164;7.558;2023-08-24T12:59:06;7.68;;;2.55;;
17153;SDS011;8692;52.164;7.558;2023-08-24T13:01:34;4.00;;;2.78;;
17153;SDS011;8692;52.164;7.558;2023-08-24T13:04:03;5.22;;;2.72;;
17153;SDS011;8692;52.164;7.558;2023-08-24T13:06:32;4.45;;;2.33;;
17153;SDS011;8692;52.164;7.558;2023-08-24T13:09:01;3.53;;;2.67;;
17153;SDS011;8692;52.164;7.558;2023-08-24T13:11:29;6.47;;;2.80;;
17153;SDS011;8692;52.164;7.558;2023-08-24T13:13:57;3.63;;;2.83;;
17153;SDS011;8692;52.164;7.558;2023-08-24T13:16:25;4.18;;;2.88;;
17153;SDS011;8692;52.164;7.558;2023-08-24T13:18:55;11.38;;;2.85;;
17153;SDS011;8692;52.164;7.558;2023-08-24T13:21:24;3.40;;;2.72;;
17153;SDS011;8692;52.164;7.558;2023-08-24T13:23:52;3.67;;;2.72;;
17153;SDS011;8692;52.164;7.558;2023-08-24T13:26:21;5.18;;;2.90;;
17153;SDS011;8692;52.164;7.558;2023-08-24T13:28:50;5.60;;;2.72;;
17153;SDS011;8692;52.164;7.558;2023-08-24T13:31:19;4.25;;;2.55;;
17153;SDS011;8692;52.164;7.558;2023-08-24T13:33:47;4.15;;;2.83;;
17153;SDS011;8692;52.164;7.558;2023-08-24T13:36:15;5.57;;;3.35;;
17153;SDS011;8692;52.164;7.558;2023-08-24T13:38:43;3.55;;;2.80;;
17153;SDS011;8692;52.164;7.558;2023-08-24T13:41:12;5.40;;;3.33;;
17153;SDS011;8692;52.164;7.558;2023-08-24T13:43:41;3.88;;;2.83;;
17153;SDS011;8692;52.164;7.558;2023-08-24T13:46:09;3.60;;;3.22;;
17153;SDS011;8692;52.164;7.558;2023-08-24T13:48:37;3.63;;;2.67;;
17153;SDS011;8692;52.164;7.558;2023-08-24T13:51:05;4.10;;;2.90;;
17153;SDS011;8692;52.164;7.558;2023-08-24T13:53:34;3.22;;;2.90;;
17153;SDS011;8692;52.164;7.558;2023-08-24T13:56:02;3.25;;;2.60;;
17153;SDS011;8692;52.164;7.558;2023-08-24T13:58:31;5.88;;;2.80;;
17153;SDS011;8692;52.164;7.558;2023-08-24T14:01:00;6.65;;;2.50;;
17153;SDS011;8692;52.164;7.558;2023-08-24T14:03:29;4.72;;;3.28;;
17153;SDS011;8692;52.164;7.558;2023-08-24T14:05:58;5.10;;;3.25;;
17153;SDS011;8692;52.164;7.558;2023-08-24T14:08:26;6.13;;;3.50;;
17153;SDS011;8692;52.164;7.558;2023-08-24T14:10:54;3.60;;;3.10;;
17153;SDS011;8692;52.164;7.558;2023-08-24T14:13:22;5.03;;;3.58;;
17153;SDS011;8692;52.164;7.558;2023-08-24T14:15:51;4.82;;;3.40;;
17153;SDS011;8692;52.164;7.558;2023-08-24T14:18:21;5.53;;;2.80;;
17153;SDS011;8692;52.164;7.558;2023-08-24T14:20:49;4.15;;;2.70;;
17153;SDS011;8692;52.164;7.558;2023-08-24T14:23:18;5.30;;;3.10;;
17153;SDS011;8692;52.164;7.558;2023-08-24T14:25:46;3.97;;;2.80;;
17153;SDS011;8692;52.164;7.558;2023-08-24T14:28:21;4.10;;;2.90;;
17153;SDS011;8692;52.164;7.558;2023-08-24T14:30:50;5.13;;;3.50;;
17153;SDS011;8692;52.164;7.558;2023-08-24T14:33:18;3.47;;;3.17;;
17153;SDS011;8692;52.164;7.558;2023-08-24T14:35:51;3.53;;;2.90;;
17153;SDS011;8692;52.164;7.558;2023-08-24T14:38:20;4.80;;;3.45;;
17153;SDS011;8692;52.164;7.558;2023-08-24T14:40:48;3.85;;;3.10;;
17153;SDS011;8692;52.164;7.558;2023-08-24T14:43:15;7.90;;;5.70;;
17153;SDS011;8692;52.164;7.558;2023-08-24T14:45:43;7.22;;;6.53;;
17153;SDS011;8692;52.164;7.558;2023-08-24T14:48:11;6.93;;;5.00;;
17153;SDS011;8692;52.164;7.558;2023-08-24T14:50:40;5.28;;;4.78;;
17153;SDS011;8692;52.164;7.558;2023-08-24T14:53:10;7.43;;;6.72;;
17153;SDS011;8692;52.164;7.558;2023-08-24T14:55:37;8.75;;;8.02;;
17153;SDS011;8692;52.164;7.558;2023-08-24T14:58:06;8.70;;;5.78;;
17153;SDS011;8692;52.164;7.558;2023-08-24T15:00:34;7.53;;;4.60;;
17153;SDS011;8692;52.164;7.558;2023-08-24T15:03:02;5.80;;;3.60;;
17153;SDS011;8692;52.164;7.558;2023-08-24T15:05:31;4.47;;;3.30;;
17153;SDS011;8692;52.164;7.558;2023-08-24T15:08:04;4.68;;;3.15;;
17153;SDS011;8692;52.164;7.558;2023-08-24T15:10:34;3.20;;;2.90;;